METAR Formatted Surface Weather Observation
Issued by NWS

Home | Current Version | Previous Version | Text Only | Print | Product List | Glossary On
Versions: 1 2 3 4
SAHW31 PHFO 250158
METAR PHKO 250153Z 20008KT 10SM OVC055 28/21 A2996 RMK AO2 SLP145
T02830206 is the U.S. government's official web portal to all federal, state and local government web resources and services.